createdAt,value
2018-10-11T00:00:20.514Z,1003.69
2018-10-11T00:01:20.577Z,1003.68
2018-10-11T00:02:20.632Z,1003.70
2018-10-11T00:03:20.690Z,1003.72
2018-10-11T00:04:20.750Z,1003.76
2018-10-11T00:05:20.810Z,1003.72
2018-10-11T00:06:20.869Z,1003.75
2018-10-11T00:07:20.927Z,1003.77
2018-10-11T00:08:20.987Z,1003.74
2018-10-11T00:09:21.047Z,1003.76
2018-10-11T00:10:21.110Z,1003.79
2018-10-11T00:11:21.164Z,1003.80
2018-10-11T00:12:21.223Z,1003.80
2018-10-11T00:13:21.283Z,1003.79
2018-10-11T00:14:21.342Z,1003.82
2018-10-11T00:15:21.400Z,1003.82
2018-10-11T00:16:21.458Z,1003.81
2018-10-11T00:17:21.525Z,1003.80
2018-10-11T00:18:21.579Z,1003.80
2018-10-11T00:19:21.636Z,1003.83
2018-10-11T00:20:21.695Z,1003.85
2018-10-11T00:21:21.754Z,1003.80
2018-10-11T00:22:21.814Z,1003.83
2018-10-11T00:23:21.873Z,1003.81
2018-10-11T00:24:21.932Z,1003.80
2018-10-11T00:25:21.992Z,1003.83
2018-10-11T00:26:22.050Z,1003.83
2018-10-11T00:27:22.110Z,1003.79
2018-10-11T00:28:22.168Z,1003.82
2018-10-11T00:29:22.228Z,1003.83
2018-10-11T00:30:22.291Z,1003.84
2018-10-11T00:31:22.346Z,1003.83
2018-10-11T00:32:22.405Z,1003.85
2018-10-11T00:33:22.466Z,1003.88
2018-10-11T00:34:22.523Z,1003.84
2018-10-11T00:35:22.586Z,1003.84
2018-10-11T00:36:22.658Z,1003.83
2018-10-11T00:37:22.701Z,1003.83
2018-10-11T00:38:22.762Z,1003.88
2018-10-11T00:39:22.819Z,1003.84
2018-10-11T00:40:22.878Z,1003.89
2018-10-11T00:41:22.937Z,1003.91
2018-10-11T00:42:22.998Z,1003.90
2018-10-11T00:43:23.055Z,1003.91
2018-10-11T00:44:23.116Z,1003.88
2018-10-11T00:45:23.174Z,1003.85
2018-10-11T00:46:23.234Z,1003.82
2018-10-11T00:47:23.292Z,1003.83
2018-10-11T00:48:23.352Z,1003.83
2018-10-11T00:49:23.429Z,1003.80
2018-10-11T00:50:23.470Z,1003.78
2018-10-11T00:51:23.529Z,1003.77
2018-10-11T00:52:23.588Z,1003.76
2018-10-11T00:53:23.647Z,1003.74
2018-10-11T00:54:23.705Z,1003.72
2018-10-11T00:55:23.767Z,1003.68
2018-10-11T00:56:23.822Z,1003.69
2018-10-11T00:57:23.883Z,1003.71
2018-10-11T00:58:23.942Z,1003.69
2018-10-11T00:59:24.000Z,1003.70
2018-10-11T01:00:24.060Z,1003.71
2018-10-11T01:01:24.121Z,1003.67
2018-10-11T01:02:24.177Z,1003.69
2018-10-11T01:03:24.236Z,1003.70
2018-10-11T01:04:24.296Z,1003.69
2018-10-11T01:05:24.355Z,1003.70
2018-10-11T01:06:24.413Z,1003.73
2018-10-11T01:07:24.471Z,1003.74
2018-10-11T01:08:24.531Z,1003.73
2018-10-11T01:09:24.643Z,1003.71
2018-10-11T01:10:24.650Z,1003.69
2018-10-11T01:11:24.709Z,1003.68
2018-10-11T01:12:24.767Z,1003.66
2018-10-11T01:13:24.825Z,1003.66
2018-10-11T01:14:24.889Z,1003.66
2018-10-11T01:15:24.944Z,1003.61
2018-10-11T01:16:25.001Z,1003.64
2018-10-11T01:17:25.061Z,1003.62
2018-10-11T01:18:25.136Z,1003.62
2018-10-11T01:19:25.182Z,1003.62
2018-10-11T01:20:25.245Z,1003.61
2018-10-11T01:21:25.298Z,1003.63
2018-10-11T01:22:25.357Z,1003.65
2018-10-11T01:23:25.415Z,1003.62
2018-10-11T01:24:25.474Z,1003.58
2018-10-11T01:25:25.533Z,1003.54
2018-10-11T01:26:25.599Z,1003.54
2018-10-11T01:27:25.651Z,1003.54
2018-10-11T01:28:25.710Z,1003.55
2018-10-11T01:29:25.810Z,1003.52
2018-10-11T01:30:25.828Z,1003.49
2018-10-11T01:31:25.885Z,1003.51
2018-10-11T01:32:25.944Z,1003.51
2018-10-11T01:33:26.009Z,1003.48
2018-10-11T01:34:26.064Z,1003.46
2018-10-11T01:35:26.122Z,1003.44
2018-10-11T01:36:26.180Z,1003.43
2018-10-11T01:37:26.240Z,1003.39
2018-10-11T01:38:26.299Z,1003.40
2018-10-11T01:39:26.357Z,1003.38
2018-10-11T01:40:26.415Z,1003.40
2018-10-11T01:41:26.475Z,1003.39
2018-10-11T01:42:26.539Z,1003.34
2018-10-11T01:43:26.592Z,1003.40
2018-10-11T01:44:26.661Z,1003.35
2018-10-11T01:45:26.711Z,1003.33
2018-10-11T01:46:26.769Z,1003.33
2018-10-11T01:47:26.827Z,1003.30
2018-10-11T01:48:26.886Z,1003.33
2018-10-11T01:49:26.946Z,1003.29
2018-10-11T01:50:27.009Z,1003.29
2018-10-11T01:51:27.065Z,1003.31
2018-10-11T01:52:27.122Z,1003.37
2018-10-11T01:53:27.180Z,1003.32
2018-10-11T01:54:27.239Z,1003.31
2018-10-11T01:55:27.300Z,1003.30
2018-10-11T01:56:27.357Z,1003.36
2018-10-11T01:57:27.664Z,1003.31
2018-10-11T01:58:27.477Z,1003.31
2018-10-11T01:59:27.531Z,1003.28
2018-10-11T02:00:27.598Z,1003.27
2018-10-11T02:01:27.650Z,1003.28
2018-10-11T02:02:27.708Z,1003.28
2018-10-11T02:03:27.766Z,1003.27
2018-10-11T02:04:27.826Z,1003.26
2018-10-11T02:05:27.884Z,1003.25
2018-10-11T02:06:27.943Z,1003.23
2018-10-11T02:07:28.003Z,1003.21
2018-10-11T02:08:28.060Z,1003.18
2018-10-11T02:09:28.180Z,1003.17
2018-10-11T02:10:28.179Z,1003.16
2018-10-11T02:11:28.236Z,1003.16
2018-10-11T02:12:28.295Z,1003.13
2018-10-11T02:13:28.353Z,1003.16
2018-10-11T02:14:28.413Z,1003.18
2018-10-11T02:15:28.470Z,1003.17
2018-10-11T02:16:28.531Z,1003.20
2018-10-11T02:17:28.860Z,1003.18
2018-10-11T02:18:28.647Z,1003.16
2018-10-11T02:19:28.705Z,1003.17
2018-10-11T02:20:28.768Z,1003.13
2018-10-11T02:21:28.823Z,1003.13
2018-10-11T02:22:28.882Z,1003.14
2018-10-11T02:23:28.941Z,1003.14
2018-10-11T02:24:29.000Z,1003.15
2018-10-11T02:25:29.057Z,1003.13
2018-10-11T02:26:29.116Z,1003.13
2018-10-11T02:27:29.176Z,1003.14
2018-10-11T02:28:29.234Z,1003.07
2018-10-11T02:29:29.294Z,1003.10
2018-10-11T02:30:29.352Z,1003.10
2018-10-11T02:31:29.412Z,1003.12
2018-10-11T02:32:29.469Z,1003.14
2018-10-11T02:33:29.537Z,1003.14
2018-10-11T02:34:29.599Z,1003.12
2018-10-11T02:35:29.647Z,1003.14
2018-10-11T02:36:29.704Z,1003.13
2018-10-11T02:37:29.762Z,1003.15
2018-10-11T02:38:29.830Z,1003.09
2018-10-11T02:39:29.880Z,1003.12
2018-10-11T02:40:29.940Z,1003.12
2018-10-11T02:41:32.622Z,1003.12
2018-10-11T02:42:33.085Z,1003.14
2018-10-11T02:44:12.553Z,1003.10
2018-10-11T02:45:12.614Z,1003.11
2018-10-11T02:46:12.675Z,1003.09
2018-10-11T02:47:12.731Z,1003.06
2018-10-11T02:48:12.796Z,1003.04
2018-10-11T02:49:12.848Z,1003.00
2018-10-11T02:52:38.731Z,1003.01
2018-10-11T02:53:38.785Z,1003.01
2018-10-11T02:54:38.844Z,1003.00
2018-10-11T02:55:38.903Z,1002.99
2018-10-11T02:56:38.961Z,1003.05
2018-10-11T02:57:39.023Z,1003.03
2018-10-11T02:58:39.079Z,1003.06
2018-10-11T02:59:39.138Z,1003.02
2018-10-11T03:01:56.734Z,1003.02
2018-10-11T03:02:56.794Z,1003.00
2018-10-11T03:03:56.854Z,1003.01
2018-10-11T03:04:56.912Z,1003.06
2018-10-11T03:05:56.970Z,1003.02
2018-10-11T03:06:57.029Z,1003.04
2018-10-11T03:07:57.088Z,1003.07
2018-10-11T03:08:57.150Z,1003.05
2018-10-11T03:09:57.204Z,1003.05
2018-10-11T03:10:57.264Z,1003.01
2018-10-11T03:11:57.323Z,1003.04
2018-10-11T03:12:57.382Z,1003.05
2018-10-11T03:13:57.440Z,1002.99
2018-10-11T03:14:57.498Z,1002.98
2018-10-11T03:15:57.557Z,1002.95
2018-10-11T03:16:57.617Z,1002.95
2018-10-11T03:17:57.675Z,1002.96
2018-10-11T03:18:57.734Z,1002.96
2018-10-11T03:19:57.793Z,1002.96
2018-10-11T03:20:57.853Z,1002.95
2018-10-11T03:21:57.909Z,1003.00
2018-10-11T03:22:57.970Z,1002.99
2018-10-11T03:23:58.031Z,1003.01
2018-10-11T03:24:58.094Z,1003.04
2018-10-11T03:25:58.145Z,1003.11
2018-10-11T03:26:58.203Z,1003.12
2018-10-11T03:27:58.263Z,1003.15
2018-10-11T03:28:58.324Z,1003.15
2018-10-11T03:29:58.380Z,1003.16
2018-10-11T03:30:58.439Z,1003.16
2018-10-11T03:31:58.499Z,1003.15
2018-10-11T03:32:58.557Z,1003.12
2018-10-11T03:33:58.613Z,1003.12
2018-10-11T03:34:58.672Z,1003.13
2018-10-11T03:35:58.731Z,1003.12
2018-10-11T03:36:58.791Z,1003.14
2018-10-11T03:37:58.849Z,1003.10
2018-10-11T03:38:58.907Z,1003.12
2018-10-11T03:39:58.969Z,1003.12
2018-10-11T03:40:59.024Z,1003.15
2018-10-11T03:41:59.086Z,1003.15
2018-10-11T03:42:59.149Z,1003.16
2018-10-11T03:43:59.200Z,1003.11
2018-10-11T03:44:59.260Z,1003.12
2018-10-11T03:45:59.320Z,1003.10
2018-10-11T03:46:59.378Z,1003.08
2018-10-11T03:47:59.435Z,1003.08
2018-10-11T03:48:59.493Z,1003.07
2018-10-11T03:49:59.551Z,1003.04
2018-10-11T03:50:59.611Z,1003.10
2018-10-11T03:51:59.670Z,1003.07
2018-10-11T03:52:59.727Z,1003.06
2018-10-11T03:53:59.786Z,1003.04
2018-10-11T03:54:59.844Z,1003.09
2018-10-11T03:55:59.904Z,1003.09
2018-10-11T03:56:59.963Z,1003.10
2018-10-11T03:58:00.022Z,1003.08
2018-10-11T03:59:00.080Z,1003.04
2018-10-11T04:00:00.137Z,1003.07
2018-10-11T04:01:00.223Z,1003.10
2018-10-11T04:02:00.256Z,1003.11
2018-10-11T04:03:00.313Z,1003.14
2018-10-11T04:04:00.373Z,1003.10
2018-10-11T04:05:00.432Z,1003.09
2018-10-11T04:06:00.490Z,1003.13
2018-10-11T04:07:00.548Z,1003.12
2018-10-11T04:08:00.608Z,1003.15
2018-10-11T04:09:00.666Z,1003.11
2018-10-11T04:10:00.724Z,1003.15
2018-10-11T04:11:00.783Z,1003.12
2018-10-11T04:12:00.844Z,1003.13
2018-10-11T04:13:00.898Z,1003.15
2018-10-11T04:14:00.957Z,1003.12
2018-10-11T04:15:01.015Z,1003.11
2018-10-11T04:16:01.073Z,1003.13
2018-10-11T04:17:01.135Z,1003.13
2018-10-11T04:18:01.191Z,1003.16
2018-10-11T04:19:01.250Z,1003.13
2018-10-11T04:20:01.312Z,1003.14
2018-10-11T04:21:01.367Z,1003.10
2018-10-11T04:22:01.426Z,1003.12
2018-10-11T04:23:01.484Z,1003.12
2018-10-11T04:24:01.546Z,1003.14
2018-10-11T04:25:01.605Z,1003.11
2018-10-11T04:26:01.659Z,1003.15
2018-10-11T04:27:01.717Z,1003.13
2018-10-11T04:28:01.776Z,1003.15
2018-10-11T04:29:01.835Z,1003.19
2018-10-11T04:30:01.946Z,1003.19
2018-10-11T04:31:01.951Z,1003.20
2018-10-11T04:32:02.011Z,1003.21
2018-10-11T04:33:02.068Z,1003.26
2018-10-11T04:34:02.125Z,1003.21
2018-10-11T04:35:02.184Z,1003.17
2018-10-11T04:36:02.295Z,1003.14
2018-10-11T04:37:02.306Z,1003.13
2018-10-11T04:38:02.364Z,1003.16
2018-10-11T04:39:02.417Z,1003.15
2018-10-11T04:40:02.478Z,1003.13
2018-10-11T04:41:02.536Z,1003.14
2018-10-11T04:42:50.119Z,1003.19
2018-10-11T04:43:50.102Z,1003.25
2018-10-11T04:44:50.160Z,1003.25
2018-10-11T04:45:50.219Z,1003.26
2018-10-11T04:46:50.278Z,1003.31
2018-10-11T04:47:50.336Z,1003.33
2018-10-11T04:48:50.395Z,1003.39
2018-10-11T04:49:50.456Z,1003.38
2018-10-11T04:50:50.522Z,1003.43
2018-10-11T04:51:50.570Z,1003.46
2018-10-11T04:52:50.632Z,1003.51
2018-10-11T04:53:50.687Z,1003.52
2018-10-11T04:54:50.745Z,1003.56
2018-10-11T04:55:50.803Z,1003.58
2018-10-11T04:56:50.859Z,1003.59
2018-10-11T04:57:50.961Z,1003.57
2018-10-11T04:58:50.977Z,1003.60
2018-10-11T04:59:51.118Z,1003.59
2018-10-11T05:00:51.094Z,1003.58
2018-10-11T05:01:51.153Z,1003.64
2018-10-11T05:02:51.209Z,1003.66
2018-10-11T05:03:51.268Z,1003.68
2018-10-11T05:04:51.326Z,1003.72
2018-10-11T05:05:51.388Z,1003.72
2018-10-11T05:06:51.443Z,1003.69
2018-10-11T05:07:51.502Z,1003.73
2018-10-11T05:08:51.558Z,1003.72
2018-10-11T05:09:51.616Z,1003.71
2018-10-11T05:10:51.679Z,1003.72
2018-10-11T05:11:51.734Z,1003.71
2018-10-11T05:12:51.790Z,1003.75
2018-10-11T05:13:51.850Z,1003.77
2018-10-11T05:14:51.907Z,1003.71
2018-10-11T05:15:51.968Z,1003.69
2018-10-11T05:16:52.024Z,1003.68
2018-10-11T05:17:52.444Z,1003.69
2018-10-11T05:18:52.459Z,1003.72
2018-10-11T05:19:52.207Z,1003.71
2018-10-11T05:20:52.257Z,1003.73
2018-10-11T05:21:52.315Z,1003.71
2018-10-11T05:22:52.374Z,1003.69
2018-10-11T05:23:52.435Z,1003.72
2018-10-11T05:24:52.491Z,1003.71
2018-10-11T05:25:52.551Z,1003.71
2018-10-11T05:26:52.611Z,1003.66
2018-10-11T05:27:52.666Z,1003.67
2018-10-11T05:28:52.724Z,1003.66
2018-10-11T05:29:52.784Z,1003.64
2018-10-11T05:30:52.840Z,1003.66
2018-10-11T05:31:52.901Z,1003.68
2018-10-11T05:32:52.957Z,1003.68
2018-10-11T05:33:53.016Z,1003.69
2018-10-11T05:34:53.075Z,1003.69
2018-10-11T05:35:53.133Z,1003.71
2018-10-11T05:36:53.191Z,1003.74
2018-10-11T05:37:53.248Z,1003.72
2018-10-11T05:38:53.308Z,1003.71
2018-10-11T05:39:53.368Z,1003.75
2018-10-11T05:40:53.423Z,1003.72
2018-10-11T05:41:53.488Z,1003.69
2018-10-11T05:42:53.542Z,1003.71
2018-10-11T05:43:53.600Z,1003.70
2018-10-11T05:44:53.657Z,1003.71
2018-10-11T05:45:53.716Z,1003.67
2018-10-11T05:46:53.775Z,1003.70
2018-10-11T05:47:53.834Z,1003.73
2018-10-11T05:48:53.891Z,1003.76
2018-10-11T05:49:53.950Z,1003.80
2018-10-11T05:50:54.008Z,1003.79
2018-10-11T05:51:54.069Z,1003.83
2018-10-11T05:52:54.124Z,1003.88
2018-10-11T05:53:54.182Z,1003.90
2018-10-11T05:54:54.241Z,1003.92
2018-10-11T05:55:54.299Z,1003.99
2018-10-11T05:56:54.363Z,1004.00
2018-10-11T05:57:54.415Z,1004.09
2018-10-11T05:58:54.475Z,1004.10
2018-10-11T05:59:54.532Z,1004.15
2018-10-11T06:00:54.590Z,1004.16
2018-10-11T06:01:54.648Z,1004.19
2018-10-11T06:02:54.742Z,1004.25
2018-10-11T06:03:54.817Z,1004.25
2018-10-11T06:04:54.848Z,1004.21
2018-10-11T06:05:54.908Z,1004.21
2018-10-11T06:06:54.961Z,1004.23
2018-10-11T06:07:55.012Z,1004.20
2018-10-11T06:08:55.055Z,1004.17
2018-10-11T06:09:55.113Z,1004.17
2018-10-11T06:10:55.172Z,1004.18
2018-10-11T06:11:55.249Z,1004.18
2018-10-11T06:12:55.288Z,1004.19
2018-10-11T06:13:55.347Z,1004.22
2018-10-11T06:14:55.404Z,1004.20
2018-10-11T06:15:55.466Z,1004.17
2018-10-11T06:16:55.521Z,1004.23
2018-10-11T06:17:55.681Z,1004.22
2018-10-11T06:18:55.636Z,1004.17
2018-10-11T06:19:55.696Z,1004.14
2018-10-11T06:20:55.753Z,1004.14
2018-10-11T06:21:55.810Z,1004.14
2018-10-11T06:22:55.869Z,1004.14
2018-10-11T06:23:55.929Z,1004.19
2018-10-11T06:24:56.053Z,1004.14
2018-10-11T06:25:56.044Z,1004.17
2018-10-11T06:26:56.103Z,1004.19
2018-10-11T06:27:56.162Z,1004.23
2018-10-11T06:28:56.220Z,1004.26
2018-10-11T06:29:56.422Z,1004.27
2018-10-11T06:30:56.336Z,1004.29
2018-10-11T06:31:56.394Z,1004.27
2018-10-11T06:32:56.451Z,1004.28
2018-10-11T06:33:56.510Z,1004.29
2018-10-11T06:34:57.117Z,1004.30
2018-10-11T06:35:56.675Z,1004.36
2018-10-11T06:36:56.686Z,1004.32
2018-10-11T06:37:56.746Z,1004.37
2018-10-11T06:38:56.802Z,1004.43
2018-10-11T06:39:56.862Z,1004.44
2018-10-11T06:40:56.919Z,1004.49
2018-10-11T06:41:57.100Z,1004.51
2018-10-11T06:42:57.035Z,1004.43
2018-10-11T06:43:57.094Z,1004.46
2018-10-11T06:44:57.167Z,1004.47
2018-10-11T06:45:57.211Z,1004.49
2018-10-11T06:46:57.284Z,1004.51
2018-10-11T06:47:57.326Z,1004.54
2018-10-11T06:48:57.417Z,1004.62
2018-10-11T06:49:57.510Z,1004.64
2018-10-11T06:50:57.506Z,1004.63
2018-10-11T06:51:57.561Z,1004.65
2018-10-11T06:52:57.619Z,1004.66
2018-10-11T06:53:57.676Z,1004.65
2018-10-11T06:54:57.735Z,1004.72
2018-10-11T06:55:57.810Z,1004.73
2018-10-11T06:56:57.868Z,1004.75
2018-10-11T06:57:58.002Z,1004.77
2018-10-11T06:58:57.999Z,1004.75
2018-10-11T06:59:58.067Z,1004.75
2018-10-11T07:00:58.084Z,1004.79
2018-10-11T07:01:58.193Z,1004.78
2018-10-11T07:02:58.202Z,1004.79
2018-10-11T07:03:58.259Z,1004.80
2018-10-11T07:04:58.317Z,1004.78
2018-10-11T07:05:58.376Z,1004.80
2018-10-11T07:06:58.436Z,1004.85
2018-10-11T07:07:58.499Z,1004.84
2018-10-11T07:08:58.551Z,1004.86
2018-10-11T07:09:58.613Z,1004.85
2018-10-11T07:10:58.669Z,1004.88
2018-10-11T07:11:58.739Z,1004.88
2018-10-11T07:12:58.786Z,1004.89
2018-10-11T07:13:58.885Z,1004.89
2018-10-11T07:14:58.905Z,1004.85
2018-10-11T07:15:58.963Z,1004.89
2018-10-11T07:16:59.021Z,1004.92
2018-10-11T07:17:59.080Z,1004.88
2018-10-11T07:18:59.140Z,1004.90
2018-10-11T07:19:59.199Z,1004.94
2018-10-11T07:20:59.258Z,1004.92
2018-10-11T07:21:59.317Z,1004.92
2018-10-11T07:22:59.377Z,1004.90
2018-10-11T07:23:59.435Z,1004.93
2018-10-11T07:24:59.493Z,1004.92
2018-10-11T07:25:59.594Z,1004.92
2018-10-11T07:26:59.613Z,1004.93
2018-10-11T07:27:59.672Z,1004.92
2018-10-11T07:28:59.730Z,1004.95
2018-10-11T07:29:59.790Z,1004.96
2018-10-11T07:30:59.850Z,1004.98
2018-10-11T07:31:59.909Z,1005.03
2018-10-11T07:32:59.968Z,1005.02
2018-10-11T07:34:00.033Z,1004.99
2018-10-11T07:35:00.171Z,1004.99
2018-10-11T07:36:00.148Z,1004.97
2018-10-11T07:37:00.205Z,1004.94
2018-10-11T07:38:00.268Z,1004.87
2018-10-11T07:39:00.325Z,1004.91
2018-10-11T07:40:00.385Z,1004.93
2018-10-11T07:41:00.554Z,1004.95
2018-10-11T07:42:00.506Z,1004.93
2018-10-11T07:43:00.564Z,1004.98
2018-10-11T07:44:00.624Z,1004.97
2018-10-11T07:45:00.685Z,1004.98
2018-10-11T07:46:00.744Z,1005.03
2018-10-11T07:47:00.815Z,1005.04
2018-10-11T07:48:01.177Z,1005.02
2018-10-11T07:49:00.922Z,1005.03
2018-10-11T07:50:01.519Z,1005.03
2018-10-11T07:51:01.766Z,1004.99
2018-10-11T07:52:01.108Z,1004.95
2018-10-11T07:53:01.255Z,1004.95
2018-10-11T07:54:01.222Z,1004.95
2018-10-11T07:55:01.282Z,1004.96
2018-10-11T07:56:01.343Z,1004.99
2018-10-11T07:57:01.398Z,1004.93
2018-10-11T07:58:01.460Z,1004.94
2018-10-11T07:59:01.519Z,1004.94
2018-10-11T08:00:01.579Z,1004.93
2018-10-11T08:01:01.690Z,1004.92
2018-10-11T08:02:01.699Z,1004.96
2018-10-11T08:03:01.759Z,1004.95
2018-10-11T08:04:01.819Z,1004.94
2018-10-11T08:05:01.883Z,1004.95
2018-10-11T08:06:01.944Z,1004.95
2018-10-11T08:07:02.108Z,1004.95
2018-10-11T08:08:02.063Z,1004.99
2018-10-11T08:09:02.226Z,1005.02
2018-10-11T08:10:02.178Z,1005.00
2018-10-11T08:11:02.361Z,1005.02
2018-10-11T08:12:02.582Z,1005.01
2018-10-11T08:13:02.358Z,1005.01
2018-10-11T08:14:02.423Z,1005.03
2018-10-11T08:15:02.478Z,1005.05
2018-10-11T08:16:02.583Z,1005.04
2018-10-11T08:17:02.786Z,1005.06
2018-10-11T08:18:02.948Z,1005.07
2018-10-11T08:19:02.895Z,1005.04
2018-10-11T08:20:02.894Z,1005.04
2018-10-11T08:21:02.840Z,1005.04
2018-10-11T08:22:02.901Z,1004.99
2018-10-11T08:23:02.960Z,1004.95
2018-10-11T08:24:03.025Z,1004.94
2018-10-11T08:25:03.192Z,1004.91
2018-10-11T08:26:03.511Z,1004.90
2018-10-11T08:27:03.239Z,1004.92
2018-10-11T08:28:03.263Z,1004.91
2018-10-11T08:29:03.323Z,1004.90
2018-10-11T08:30:03.384Z,1004.92
2018-10-11T08:31:03.445Z,1004.96
2018-10-11T08:32:03.508Z,1004.97
2018-10-11T08:33:03.576Z,1004.98
2018-10-11T08:34:03.626Z,1005.02
2018-10-11T08:35:03.687Z,1005.02
2018-10-11T08:36:03.746Z,1004.99
2018-10-11T08:37:03.809Z,1005.00
2018-10-11T08:38:04.015Z,1005.01
2018-10-11T08:39:04.283Z,1005.02
2018-10-11T08:40:03.989Z,1005.00
2018-10-11T08:41:04.050Z,1004.97
2018-10-11T08:42:04.111Z,1005.00
2018-10-11T08:43:04.173Z,1005.00
2018-10-11T08:44:04.387Z,1005.02
2018-10-11T08:45:04.293Z,1005.04
2018-10-11T08:46:04.354Z,1005.03
2018-10-11T08:47:04.418Z,1005.01
2018-10-11T08:48:04.476Z,1005.01
2018-10-11T08:49:04.605Z,1004.99
2018-10-11T08:50:04.655Z,1004.99
2018-10-11T08:51:04.660Z,1005.00
2018-10-11T08:52:04.763Z,1004.96
2018-10-11T08:53:04.781Z,1004.96
2018-10-11T08:54:04.844Z,1004.96
2018-10-11T08:55:04.904Z,1004.95
2018-10-11T08:56:05.051Z,1005.00
2018-10-11T08:57:05.026Z,1005.03
2018-10-11T08:58:05.091Z,1005.07
2018-10-11T08:59:05.251Z,1005.08
2018-10-11T09:00:05.210Z,1005.05
2018-10-11T09:01:05.271Z,1004.97
2018-10-11T09:02:05.332Z,1004.94
2018-10-11T09:03:05.397Z,1004.92
2018-10-11T09:04:05.552Z,1004.95
2018-10-11T09:05:05.559Z,1004.96
2018-10-11T09:06:05.579Z,1005.00
2018-10-11T09:07:05.649Z,1004.99
2018-10-11T09:08:05.701Z,1005.03
2018-10-11T09:09:05.763Z,1005.02
2018-10-11T09:10:05.825Z,1005.03
2018-10-11T09:11:05.961Z,1005.02
2018-10-11T09:12:05.958Z,1005.03
2018-10-11T09:13:06.012Z,1005.01
2018-10-11T09:14:06.071Z,1005.03
2018-10-11T09:15:06.132Z,1005.01
2018-10-11T09:16:06.194Z,1005.00
2018-10-11T09:17:06.303Z,1005.03
2018-10-11T09:18:06.319Z,1005.00
2018-10-11T09:19:06.378Z,1005.00
2018-10-11T09:20:06.441Z,1005.00
2018-10-11T09:21:06.502Z,1004.98
2018-10-11T09:22:06.564Z,1005.03
2018-10-11T09:23:06.658Z,1005.00
2018-10-11T09:24:06.690Z,1005.04
2018-10-11T09:25:06.750Z,1005.02
2018-10-11T09:26:06.813Z,1005.00
2018-10-11T09:27:06.877Z,1004.97
2018-10-11T09:28:07.011Z,1004.97
2018-10-11T09:29:06.996Z,1004.93
2018-10-11T09:30:07.088Z,1004.92
2018-10-11T09:31:07.125Z,1004.94
2018-10-11T09:32:07.184Z,1004.92
2018-10-11T09:33:07.245Z,1004.92
2018-10-11T09:34:07.307Z,1004.85
2018-10-11T09:35:07.372Z,1004.83
2018-10-11T09:36:07.434Z,1004.85
2018-10-11T09:37:07.495Z,1004.85
2018-10-11T09:38:07.556Z,1004.82
2018-10-11T09:39:07.621Z,1004.82
2018-10-11T09:40:07.686Z,1004.82
2018-10-11T09:41:07.743Z,1004.81
2018-10-11T09:42:07.811Z,1004.83
2018-10-11T09:43:07.906Z,1004.84
2018-10-11T09:44:07.932Z,1004.83
2018-10-11T09:45:07.993Z,1004.79
2018-10-11T09:46:08.056Z,1004.74
2018-10-11T09:47:08.120Z,1004.74
2018-10-11T09:48:08.189Z,1004.72
2018-10-11T09:49:08.244Z,1004.74
2018-10-11T09:50:08.307Z,1004.77
2018-10-11T09:51:08.369Z,1004.72
2018-10-11T09:52:08.432Z,1004.70
2018-10-11T09:53:08.493Z,1004.72
2018-10-11T09:54:08.556Z,1004.71
2018-10-11T09:55:08.620Z,1004.73
2018-10-11T09:56:08.683Z,1004.74
2018-10-11T09:57:08.744Z,1004.74
2018-10-11T09:58:08.808Z,1004.77
2018-10-11T09:59:08.870Z,1004.77
2018-10-11T10:00:08.934Z,1004.78
2018-10-11T10:01:08.998Z,1004.76
2018-10-11T10:02:09.178Z,1004.77
2018-10-11T10:03:09.123Z,1004.76
2018-10-11T10:04:09.184Z,1004.81
2018-10-11T10:05:09.250Z,1004.76
2018-10-11T10:06:09.309Z,1004.72
2018-10-11T10:07:09.372Z,1004.74
2018-10-11T10:08:09.437Z,1004.74
2018-10-11T10:09:09.499Z,1004.74
2018-10-11T10:10:09.562Z,1004.69
2018-10-11T10:11:09.627Z,1004.72
2018-10-11T10:12:09.688Z,1004.66
2018-10-11T10:13:09.752Z,1004.68
2018-10-11T10:14:09.814Z,1004.67
2018-10-11T10:15:09.878Z,1004.66
2018-10-11T10:16:09.941Z,1004.71
2018-10-11T10:17:10.007Z,1004.71
2018-10-11T10:18:10.069Z,1004.76
2018-10-11T10:19:10.132Z,1004.79
2018-10-11T10:20:10.199Z,1004.72
2018-10-11T10:21:10.273Z,1004.73
2018-10-11T10:22:10.325Z,1004.75
2018-10-11T10:23:10.387Z,1004.75
2018-10-11T10:24:10.451Z,1004.76
2018-10-11T10:25:10.514Z,1004.74
2018-10-11T10:26:10.577Z,1004.73
2018-10-11T10:27:10.781Z,1004.73
2018-10-11T10:28:10.706Z,1004.68
2018-10-11T10:29:10.770Z,1004.71
2018-10-11T10:30:10.834Z,1004.70
2018-10-11T10:31:10.897Z,1004.69
2018-10-11T10:32:10.967Z,1004.68
2018-10-11T10:33:11.029Z,1004.67
2018-10-11T10:34:11.090Z,1004.73
2018-10-11T10:35:11.155Z,1004.76
2018-10-11T10:36:11.219Z,1004.80
2018-10-11T10:37:11.284Z,1004.77
2018-10-11T10:38:11.349Z,1004.78
2018-10-11T10:39:11.414Z,1004.82
2018-10-11T10:40:11.833Z,1004.83
2018-10-11T10:41:11.544Z,1004.87
2018-10-11T10:42:11.609Z,1004.93
2018-10-11T10:43:11.679Z,1004.94
2018-10-11T10:44:11.740Z,1004.93
2018-10-11T10:45:11.803Z,1004.91
2018-10-11T10:46:11.869Z,1004.95
2018-10-11T10:47:11.936Z,1004.99
2018-10-11T10:48:12.000Z,1005.02
2018-10-11T10:49:12.066Z,1005.04
2018-10-11T10:50:12.138Z,1005.05
2018-10-11T10:51:12.196Z,1005.00
2018-10-11T10:52:12.262Z,1004.96
2018-10-11T10:53:12.327Z,1004.96
2018-10-11T10:54:12.410Z,1004.97
2018-10-11T10:55:12.458Z,1004.96
2018-10-11T10:56:12.524Z,1004.96
2018-10-11T10:57:12.587Z,1005.05
2018-10-11T10:58:12.653Z,1005.24
2018-10-11T10:59:12.719Z,1005.00
2018-10-11T11:00:12.785Z,1005.00
2018-10-11T11:01:12.850Z,1004.91
2018-10-11T11:02:12.916Z,1004.86
2018-10-11T11:03:12.982Z,1004.94
2018-10-11T11:04:13.048Z,1004.97
2018-10-11T11:05:13.112Z,1005.09
2018-10-11T11:06:13.179Z,1004.95
2018-10-11T11:07:13.291Z,1004.89
2018-10-11T11:08:13.313Z,1004.94
2018-10-11T11:09:13.378Z,1004.90
2018-10-11T11:10:13.444Z,1004.80
2018-10-11T11:11:13.510Z,1004.76
2018-10-11T11:12:13.577Z,1004.67
2018-10-11T11:13:13.710Z,1004.62
2018-10-11T11:14:13.708Z,1004.65
2018-10-11T11:15:13.779Z,1004.63
2018-10-11T11:16:13.843Z,1004.62
2018-10-11T11:17:13.907Z,1004.58
2018-10-11T11:18:13.974Z,1004.52
2018-10-11T11:19:14.041Z,1004.55
2018-10-11T11:20:14.106Z,1004.53
2018-10-11T11:21:14.174Z,1004.49
2018-10-11T11:22:14.279Z,1004.45
2018-10-11T11:23:14.305Z,1004.44
2018-10-11T11:24:14.370Z,1004.46
2018-10-11T11:25:14.466Z,1004.48
2018-10-11T11:26:14.503Z,1004.52
2018-10-11T11:27:14.569Z,1004.57
2018-10-11T11:28:14.636Z,1004.68
2018-10-11T11:29:14.700Z,1004.73
2018-10-11T11:30:14.768Z,1004.75
2018-10-11T11:31:14.838Z,1004.83
2018-10-11T11:32:14.900Z,1004.87
2018-10-11T11:33:14.968Z,1004.88
2018-10-11T11:34:15.032Z,1005.00
2018-10-11T11:35:15.098Z,1004.99
2018-10-11T11:36:15.165Z,1005.03
2018-10-11T11:37:15.231Z,1005.01
2018-10-11T11:38:15.297Z,1005.10
2018-10-11T11:39:15.363Z,1005.18
2018-10-11T11:40:15.430Z,1005.17
2018-10-11T11:41:15.496Z,1004.91
2018-10-11T11:42:15.561Z,1004.98
2018-10-11T11:43:15.630Z,1005.32
2018-10-11T11:44:16.081Z,1005.35
2018-10-11T11:45:15.763Z,1005.56
2018-10-11T11:46:15.831Z,1005.78
2018-10-11T11:47:15.898Z,1005.49
2018-10-11T11:48:15.966Z,1005.25
2018-10-11T11:49:16.033Z,1005.35
2018-10-11T11:50:16.100Z,1005.39
2018-10-11T11:51:16.169Z,1005.78
2018-10-11T11:52:16.237Z,1005.90
2018-10-11T11:53:16.369Z,1006.40
2018-10-11T11:54:16.373Z,1006.47
2018-10-11T11:55:16.441Z,1006.46
2018-10-11T11:56:16.508Z,1005.88
2018-10-11T11:57:16.576Z,1005.76
2018-10-11T11:58:16.645Z,1006.97
2018-10-11T11:59:16.784Z,1008.56
2018-10-11T12:00:16.781Z,1009.06
2018-10-11T12:01:16.849Z,1008.42
2018-10-11T12:02:16.995Z,1007.36
2018-10-11T12:03:16.985Z,1007.60
2018-10-11T12:04:17.055Z,1007.44
2018-10-11T12:05:17.258Z,1005.72
2018-10-11T12:06:17.191Z,1005.25
2018-10-11T12:07:17.260Z,1006.59
2018-10-11T12:08:17.329Z,1008.53
2018-10-11T12:09:17.398Z,1009.26
2018-10-11T12:10:17.519Z,1009.49
2018-10-11T12:11:17.533Z,1009.51